createdAt,value
2022-10-19T00:00:16.002Z,8.60
2022-10-19T00:06:18.144Z,8.50
2022-10-19T00:12:20.230Z,8.50
2022-10-19T00:18:22.495Z,8.50
2022-10-19T00:24:24.799Z,8.50
2022-10-19T00:30:26.910Z,8.50
2022-10-19T00:36:35.205Z,8.50
2022-10-19T00:42:37.433Z,8.50
2022-10-19T00:48:39.509Z,8.40
2022-10-19T00:54:43.135Z,8.40
2022-10-19T01:00:45.407Z,8.40
2022-10-19T01:06:47.857Z,8.40
2022-10-19T01:13:06.254Z,8.30
2022-10-19T01:19:36.321Z,8.30
2022-10-19T01:25:55.581Z,8.30
2022-10-19T01:32:03.350Z,8.40
2022-10-19T01:38:14.290Z,8.40
2022-10-19T01:44:42.464Z,8.30
2022-10-19T01:51:09.330Z,8.40
2022-10-19T01:57:14.438Z,8.40
2022-10-19T02:03:18.289Z,8.40
2022-10-19T02:09:20.905Z,8.40
2022-10-19T02:15:25.318Z,8.60
2022-10-19T02:21:28.429Z,8.60
2022-10-19T02:27:30.634Z,8.70
2022-10-19T02:33:33.279Z,8.80
2022-10-19T02:39:35.508Z,8.80
2022-10-19T02:45:43.546Z,8.90
2022-10-19T02:52:01.710Z,8.90
2022-10-19T02:58:03.928Z,8.80
2022-10-19T03:04:06.170Z,8.80
2022-10-19T03:10:08.663Z,8.80
2022-10-19T03:16:12.732Z,8.70
2022-10-19T03:22:15.202Z,8.60
2022-10-19T03:28:17.402Z,8.50
2022-10-19T03:34:19.745Z,8.50
2022-10-19T03:40:21.997Z,8.40
2022-10-19T03:46:24.567Z,8.40
2022-10-19T03:52:26.693Z,8.30
2022-10-19T03:58:29.181Z,8.30
2022-10-19T04:04:31.165Z,8.30
2022-10-19T04:10:33.397Z,8.30
2022-10-19T04:16:35.392Z,8.40
2022-10-19T04:22:37.650Z,8.40
2022-10-19T04:28:39.813Z,8.40
2022-10-19T04:34:42.136Z,8.50
2022-10-19T04:40:44.508Z,8.60
2022-10-19T04:46:46.691Z,8.80
2022-10-19T04:52:48.910Z,8.90
2022-10-19T04:58:51.034Z,9.00
2022-10-19T05:04:53.308Z,9.10
2022-10-19T05:10:55.469Z,13.10
2022-10-19T05:16:57.529Z,13.90
2022-10-19T05:23:03.281Z,15.20
2022-10-19T05:29:12.103Z,13.10
2022-10-19T05:35:16.453Z,12.20
2022-10-19T05:41:21.820Z,11.50
2022-10-19T05:47:27.342Z,11.80
2022-10-19T05:53:32.944Z,11.20
2022-10-19T05:59:34.908Z,10.90
2022-10-19T06:05:37.559Z,10.90
2022-10-19T06:11:41.798Z,11.00
2022-10-19T06:17:43.890Z,11.10
2022-10-19T06:23:49.865Z,11.60
2022-10-19T06:29:52.115Z,15.70
2022-10-19T06:35:54.591Z,21.40
2022-10-19T06:41:56.979Z,24.70
2022-10-19T06:48:04.963Z,26.10
2022-10-19T06:54:09.863Z,27.70
2022-10-19T07:00:12.657Z,24.90
2022-10-19T07:06:14.958Z,25.90
2022-10-19T07:12:17.352Z,22.60
2022-10-19T07:18:19.597Z,25.80
2022-10-19T07:24:21.584Z,28.10
2022-10-19T07:30:24.196Z,29.70
2022-10-19T07:36:27.289Z,31.30
2022-10-19T07:42:30.797Z,31.00
2022-10-19T07:48:34.006Z,30.90
2022-10-19T07:54:36.079Z,32.50
2022-10-19T08:07:00.536Z,31.10
2022-10-19T08:13:02.556Z,28.30
2022-10-19T08:19:13.265Z,22.90
2022-10-19T08:25:15.568Z,20.50
2022-10-19T08:31:22.872Z,20.00
2022-10-19T08:37:43.801Z,19.00
2022-10-19T08:44:31.107Z,18.40
2022-10-19T08:50:42.687Z,18.30
2022-10-19T08:56:53.711Z,19.10
2022-10-19T09:03:32.005Z,18.70
2022-10-19T09:09:51.474Z,18.70
2022-10-19T09:15:55.629Z,18.40
2022-10-19T09:22:06.899Z,18.50
2022-10-19T09:28:38.818Z,18.50
2022-10-19T09:34:46.566Z,18.60
2022-10-19T09:40:48.925Z,18.80
2022-10-19T09:47:18.442Z,19.00
2022-10-19T09:53:21.935Z,19.10
2022-10-19T09:59:28.549Z,19.30
2022-10-19T10:05:39.530Z,19.40
2022-10-19T10:11:46.384Z,19.70
2022-10-19T10:17:49.996Z,19.90
2022-10-19T10:24:13.187Z,20.20
2022-10-19T10:30:20.089Z,20.30
2022-10-19T10:36:25.317Z,20.50
2022-10-19T10:42:35.623Z,20.80
2022-10-19T10:48:41.393Z,21.30
2022-10-19T10:55:08.661Z,21.80
2022-10-19T11:01:20.577Z,22.20
2022-10-19T11:07:25.618Z,23.30
2022-10-19T11:13:33.146Z,26.70
2022-10-19T11:19:42.515Z,30.80
2022-10-19T11:26:15.895Z,31.30
2022-10-19T11:32:36.000Z,33.00
2022-10-19T11:39:16.242Z,33.70
2022-10-19T11:45:46.417Z,29.60
2022-10-19T11:51:57.730Z,26.20
2022-10-19T11:58:12.966Z,25.80
2022-10-19T12:04:35.123Z,23.50
2022-10-19T12:10:43.166Z,23.10
2022-10-19T12:16:51.009Z,23.00
2022-10-19T12:22:53.450Z,22.60
2022-10-19T12:29:06.697Z,22.20
2022-10-19T12:35:17.585Z,21.90
2022-10-19T12:41:36.884Z,21.90
2022-10-19T12:47:38.871Z,21.70
2022-10-19T12:53:49.250Z,21.60
2022-10-19T13:00:05.312Z,21.60
2022-10-19T13:06:32.879Z,21.40
2022-10-19T13:12:46.679Z,21.30
2022-10-19T13:19:02.534Z,21.30
2022-10-19T13:25:16.824Z,21.20
2022-10-19T13:31:34.296Z,21.20
2022-10-19T13:37:36.520Z,21.00
2022-10-19T13:43:39.999Z,20.80
2022-10-19T13:50:00.245Z,20.80
2022-10-19T13:56:23.166Z,20.70
2022-10-19T14:02:47.812Z,20.60
2022-10-19T14:08:59.395Z,20.40
2022-10-19T14:15:01.460Z,20.30
2022-10-19T14:21:08.655Z,20.20
2022-10-19T14:27:19.613Z,20.00
2022-10-19T14:33:21.926Z,19.70
2022-10-19T14:39:29.666Z,19.50
2022-10-19T14:45:33.011Z,19.40
2022-10-19T14:58:17.250Z,19.00
2022-10-19T15:04:29.518Z,18.90
2022-10-19T15:10:41.823Z,18.70
2022-10-19T15:16:51.229Z,18.50
2022-10-19T15:29:38.618Z,17.90
2022-10-19T15:35:44.394Z,17.70
2022-10-19T15:41:49.607Z,17.60
2022-10-19T15:48:41.450Z,17.40
2022-10-19T15:54:43.570Z,17.30
2022-10-19T16:00:45.565Z,17.10
2022-10-19T16:06:47.645Z,16.90
2022-10-19T16:12:50.151Z,16.70
2022-10-19T16:18:52.655Z,16.50
2022-10-19T16:24:54.685Z,16.30
2022-10-19T16:30:57.447Z,16.10
2022-10-19T16:37:02.661Z,15.90
2022-10-19T16:43:08.163Z,15.80
2022-10-19T16:49:10.376Z,15.60
2022-10-19T16:55:12.444Z,15.40
2022-10-19T17:01:18.012Z,15.30
2022-10-19T17:07:20.171Z,15.20
2022-10-19T17:13:22.333Z,15.10
2022-10-19T17:19:24.553Z,14.90
2022-10-19T17:25:26.549Z,14.80
2022-10-19T17:31:29.725Z,14.70
2022-10-19T17:37:31.830Z,14.60
2022-10-19T17:43:34.447Z,14.50
2022-10-19T17:49:37.349Z,14.40
2022-10-19T17:55:39.374Z,14.30
2022-10-19T18:01:41.933Z,14.20
2022-10-19T18:07:44.594Z,14.20
2022-10-19T18:13:46.998Z,14.20
2022-10-19T18:19:49.159Z,14.30
2022-10-19T18:25:54.297Z,14.40
2022-10-19T18:31:56.942Z,14.30
2022-10-19T18:37:59.376Z,14.20
2022-10-19T18:44:05.512Z,14.10
2022-10-19T18:50:07.918Z,14.00
2022-10-19T18:56:12.923Z,13.90
2022-10-19T19:02:22.216Z,14.00
2022-10-19T19:08:24.925Z,14.10
2022-10-19T19:14:27.261Z,14.10
2022-10-19T19:20:29.387Z,14.20
2022-10-19T19:26:34.827Z,14.80
2022-10-19T19:32:37.874Z,14.80
2022-10-19T19:38:40.378Z,14.70
2022-10-19T19:44:42.479Z,14.70
2022-10-19T19:50:47.092Z,14.80
2022-10-19T19:56:53.541Z,14.90
2022-10-19T20:02:57.214Z,14.90
2022-10-19T20:08:59.396Z,14.80
2022-10-19T20:15:01.797Z,14.70
2022-10-19T20:21:04.756Z,14.70
2022-10-19T20:27:06.935Z,14.60
2022-10-19T20:33:09.025Z,14.50
2022-10-19T20:39:11.370Z,14.50
2022-10-19T20:45:13.785Z,14.50
2022-10-19T20:51:21.325Z,14.50
2022-10-19T20:57:23.270Z,14.40
2022-10-19T21:03:25.376Z,14.40
2022-10-19T21:09:27.528Z,14.40
2022-10-19T21:15:29.763Z,14.40
2022-10-19T21:21:37.287Z,14.40
2022-10-19T21:27:39.622Z,14.40
2022-10-19T21:33:41.668Z,14.40
2022-10-19T21:39:43.812Z,14.40
2022-10-19T21:45:46.042Z,14.40
2022-10-19T21:51:52.264Z,14.30
2022-10-19T21:57:54.314Z,14.40
2022-10-19T22:04:00.600Z,14.50
2022-10-19T22:10:02.869Z,14.60
2022-10-19T22:16:10.594Z,14.60
2022-10-19T22:22:12.706Z,14.70
2022-10-19T22:28:15.062Z,14.70
2022-10-19T22:34:17.772Z,14.70
2022-10-19T22:46:50.295Z,14.70
2022-10-19T22:52:52.456Z,14.70
2022-10-19T22:58:58.554Z,14.70
2022-10-19T23:05:00.527Z,14.70
2022-10-19T23:11:02.637Z,14.70
2022-10-19T23:17:04.792Z,14.60
2022-10-19T23:23:07.868Z,14.60
2022-10-19T23:29:10.724Z,14.60
2022-10-19T23:35:12.717Z,14.50
2022-10-19T23:41:16.122Z,14.50
2022-10-19T23:47:18.407Z,14.40
2022-10-19T23:53:20.473Z,14.40
2022-10-19T23:59:22.710Z,14.40
